Time;durP1;ratioP1;P1;durP2;ratioP2;P2;SDS_P1;SDS_P2;PMS_P1;PMS_P2;Temp;Humidity;BMP_temperature;BMP_pressure;BME280_temperature;BME280_humidity;BME280_pressure;Samples;Min_cycle;Max_cycle;Signal;HPM_P1;HPM_P2
2023/07/02 00:02:00;;;;;;;;;44.25;30.50;;;;;19.72;49.91;100647.94;5075012;28;66994;-75
2023/07/02 00:04:26;;;;;;;;;36.50;26.00;;;;;19.66;49.40;100647.50;5077388;27;45366;-75
2023/07/02 00:06:51;;;;;;;;;35.25;28.00;;;;;19.65;49.29;100654.59;5072813;28;60374;-76
2023/07/02 00:09:17;;;;;;;;;41.75;32.25;;;;;19.60;49.86;100653.22;5078826;28;62363;-76
2023/07/02 00:11:43;;;;;;;;;35.00;28.50;;;;;19.58;50.50;100655.13;5067013;28;45905;-76
2023/07/02 00:14:09;;;;;;;;;45.00;30.75;;;;;19.53;50.12;100653.63;5078305;28;45538;-76
2023/07/02 00:16:38;;;;;;;;;36.00;28.50;;;;;19.47;49.87;100653.16;5072991;28;45385;-76
2023/07/02 00:19:04;;;;;;;;;33.50;26.25;;;;;19.35;50.29;100657.47;5076768;28;45449;-76
2023/07/02 00:21:32;;;;;;;;;45.00;31.00;;;;;19.27;50.43;100657.97;5072919;28;45338;-77
2023/07/02 00:23:57;;;;;;;;;34.00;28.25;;;;;19.21;50.46;100654.84;5081125;27;45575;-76
2023/07/02 00:26:27;;;;;;;;;33.75;28.00;;;;;19.14;50.60;100649.09;5059395;27;46486;-77
2023/07/02 00:28:56;;;;;;;;;38.00;27.75;;;;;19.09;50.85;100652.06;5075418;27;45779;-77
2023/07/02 00:31:22;;;;;;;;;31.50;23.75;;;;;19.04;50.81;100646.19;5072257;28;45555;-77
2023/07/02 00:33:48;;;;;;;;;39.75;26.75;;;;;19.02;50.83;100644.59;5056372;28;45240;-77
2023/07/02 00:36:14;;;;;;;;;44.25;30.00;;;;;19.01;51.38;100651.69;5074312;28;46382;-77
2023/07/02 00:38:46;;;;;;;;;31.50;27.00;;;;;18.98;51.09;100649.22;5072902;27;45804;-77
2023/07/02 00:41:11;;;;;;;;;29.75;26.50;;;;;18.96;51.57;100643.16;5076404;28;47174;-77
2023/07/02 00:43:43;;;;;;;;;42.50;30.25;;;;;18.91;51.33;100639.94;5070653;27;67028;-79
2023/07/02 00:46:12;;;;;;;;;33.25;27.50;;;;;18.91;51.64;100647.91;5068809;27;47304;-79
2023/07/02 00:48:38;;;;;;;;;29.25;24.50;;;;;18.89;51.30;100641.84;5078103;27;45469;-79
2023/07/02 00:51:04;;;;;;;;;38.25;27.50;;;;;18.87;51.52;100641.09;5072618;27;45413;-78
2023/07/02 00:53:29;;;;;;;;;41.50;27.75;;;;;18.85;51.74;100645.66;5073246;28;65633;-79
2023/07/02 00:55:54;;;;;;;;;37.25;28.75;;;;;18.81;51.33;100647.63;5076572;27;57487;-78
2023/07/02 00:58:20;;;;;;;;;46.00;29.75;;;;;18.79;51.78;100645.06;5076238;28;54922;-78
2023/07/02 01:00:46;;;;;;;;;38.50;29.00;;;;;18.75;51.60;100648.00;5071525;28;45240;-78
2023/07/02 01:03:12;;;;;;;;;38.75;26.75;;;;;18.73;52.40;100641.94;5073752;28;45410;-78
2023/07/02 01:05:37;;;;;;;;;39.50;25.00;;;;;18.68;52.09;100641.38;5057825;28;73954;-79
2023/07/02 01:08:03;;;;;;;;;34.50;24.00;;;;;18.66;52.24;100641.50;5074958;27;45485;-76
2023/07/02 01:10:30;;;;;;;;;33.50;26.25;;;;;18.64;52.30;100646.00;5065736;27;45383;-77
2023/07/02 01:12:57;;;;;;;;;38.50;26.75;;;;;18.67;52.26;100650.28;5074790;28;45601;-76
2023/07/02 01:15:22;;;;;;;;;33.00;25.75;;;;;18.64;53.03;100653.13;5074321;28;46950;-76
2023/07/02 01:17:48;;;;;;;;;40.75;26.25;;;;;18.59;51.90;100651.63;5070217;27;67943;-76
2023/07/02 01:20:14;;;;;;;;;39.25;27.50;;;;;18.57;52.61;100663.25;5076123;28;45259;-76
2023/07/02 01:22:41;;;;;;;;;33.25;25.50;;;;;18.55;52.70;100670.44;5073727;28;45414;-77
2023/07/02 01:25:08;;;;;;;;;44.00;29.75;;;;;18.49;52.84;100658.44;5060495;28;47012;-77
2023/07/02 01:27:35;;;;;;;;;44.00;28.25;;;;;18.51;53.05;100658.34;5073985;28;45467;-77
2023/07/02 01:30:01;;;;;;;;;28.75;27.50;;;;;18.51;52.83;100666.28;5075747;28;45496;-77
2023/07/02 01:32:26;;;;;;;;;42.25;29.25;;;;;18.49;53.34;100668.19;5068334;28;70773;-77
2023/07/02 01:34:53;;;;;;;;;35.00;28.00;;;;;18.46;53.28;100665.72;5057001;28;47102;-77
2023/07/02 01:37:18;;;;;;;;;31.75;27.50;;;;;18.45;53.27;100666.66;5073792;28;45927;-77
2023/07/02 01:39:44;;;;;;;;;38.00;29.50;;;;;18.41;53.38;100663.34;5068512;27;45311;-77
2023/07/02 01:42:18;;;;;;;;;38.75;27.00;;;;;18.40;53.30;100665.13;5074218;28;56792;-77
2023/07/02 01:44:44;;;;;;;;;40.50;29.75;;;;;18.36;54.38;100673.34;5068272;28;46369;-77
2023/07/02 01:47:10;;;;;;;;;35.25;26.75;;;;;18.30;53.67;100663.16;5075734;28;45728;-77
2023/07/02 01:49:38;;;;;;;;;40.75;28.50;;;;;18.29;53.37;100669.38;5073443;28;51424;-77
2023/07/02 01:52:04;;;;;;;;;30.25;24.75;;;;;18.26;53.81;100664.28;5074151;28;45622;-77
2023/07/02 01:54:31;;;;;;;;;32.00;22.25;;;;;18.23;54.18;100665.31;5080089;27;45587;-77
2023/07/02 01:56:57;;;;;;;;;35.50;29.00;;;;;18.18;53.93;100662.06;5071948;28;45801;-77
2023/07/02 01:59:22;;;;;;;;;28.25;23.50;;;;;18.19;54.49;100669.09;5078347;28;45374;-77
2023/07/02 02:01:48;;;;;;;;;33.50;25.25;;;;;18.15;54.29;100667.56;5070900;28;49769;-77
2023/07/02 02:04:13;;;;;;;;;39.50;26.00;;;;;18.11;55.08;100671.34;5078554;27;45450;-77
2023/07/02 02:06:39;;;;;;;;;44.75;28.25;;;;;18.06;54.93;100663.69;5054644;28;65462;-77
2023/07/02 02:09:05;;;;;;;;;30.75;25.25;;;;;18.05;55.21;100659.31;5076854;27;45578;-77
2023/07/02 02:11:31;;;;;;;;;42.25;26.75;;;;;18.07;54.72;100672.47;5074315;28;45894;-77
2023/07/02 02:13:58;;;;;;;;;39.00;26.00;;;;;18.05;55.06;100661.97;5075453;27;46971;-77
2023/07/02 02:16:23;;;;;;;;;28.00;25.25;;;;;18.05;54.84;100661.97;5077449;27;45410;-77
2023/07/02 02:18:51;;;;;;;;;36.00;27.50;;;;;18.03;54.84;100658.56;5059805;28;45399;-77
2023/07/02 02:21:17;;;;;;;;;39.75;27.75;;;;;18.02;56.56;100660.38;5075622;27;45431;-77
2023/07/02 02:23:43;;;;;;;;;34.25;26.75;;;;;18.02;55.41;100660.38;5075240;28;45541;-77
2023/07/02 02:26:09;;;;;;;;;28.00;24.00;;;;;18.00;55.27;100664.88;5074837;28;45370;-76
2023/07/02 02:28:34;;;;;;;;;31.50;26.75;;;;;18.04;55.51;100665.53;5076997;28;60849;-77
2023/07/02 02:30:59;;;;;;;;;34.50;25.75;;;;;18.05;55.15;100671.72;5054931;28;45514;-78
2023/07/02 02:33:25;;;;;;;;;32.50;24.25;;;;;18.04;56.16;100665.53;5079566;27;45322;-77
2023/07/02 02:35:50;;;;;;;;;32.00;25.75;;;;;18.00;56.06;100667.53;5084635;27;64591;-77
2023/07/02 02:38:15;;;;;;;;;30.75;17.50;;;;;17.97;56.83;100666.84;5078193;27;55514;-78
2023/07/02 02:40:40;;;;;;;;;40.25;26.75;;;;;17.95;56.21;100668.75;5078929;27;45387;-77
2023/07/02 02:43:06;;;;;;;;;34.50;23.25;;;;;17.91;55.72;100667.22;5074052;28;75615;-77
2023/07/02 02:45:31;;;;;;;;;26.25;23.75;;;;;17.86;55.45;100672.78;5059079;28;45316;-78
2023/07/02 02:47:57;;;;;;;;;29.25;21.50;;;;;17.80;56.24;100670.47;5070967;27;66586;-78
2023/07/02 02:50:22;;;;;;;;;31.00;21.50;;;;;17.79;56.59;100680.19;5060624;28;63395;-77
2023/07/02 02:52:48;;;;;;;;;36.00;22.50;;;;;17.75;56.72;100670.72;5074007;27;61279;-77
2023/07/02 02:55:13;;;;;;;;;35.25;25.75;;;;;17.73;56.38;100675.25;5081560;27;57745;-78
2023/07/02 02:57:39;;;;;;;;;29.00;24.25;;;;;17.69;58.04;100675.53;5059573;28;45470;-78
2023/07/02 03:00:04;;;;;;;;;30.75;26.25;;;;;17.65;56.87;100673.06;5077034;28;46016;-78
2023/07/02 03:02:30;;;;;;;;;27.50;23.00;;;;;17.60;56.71;100669.84;5076792;27;48558;-77
2023/07/02 03:04:56;;;;;;;;;31.50;21.75;;;;;17.58;57.08;100670.84;5079555;27;62177;-76
2023/07/02 03:07:22;;;;;;;;;27.50;23.00;;;;;17.59;57.10;100672.56;5073219;27;45382;-77
2023/07/02 03:09:47;;;;;;;;;24.25;21.25;;;;;17.57;57.14;100674.44;5066730;28;45305;-77
2023/07/02 03:12:13;;;;;;;;;29.25;23.00;;;;;17.54;57.59;100670.16;5074945;27;66985;-77
2023/07/02 03:14:38;;;;;;;;;37.25;24.75;;;;;17.58;57.25;100684.06;5079941;27;63034;-76
2023/07/02 03:17:03;;;;;;;;;30.50;18.00;;;;;17.54;56.67;100679.91;5060092;28;45589;-76
2023/07/02 03:19:29;;;;;;;;;33.00;21.25;;;;;17.52;57.05;100677.34;5078792;27;63419;-77
2023/07/02 03:21:54;;;;;;;;;30.00;23.00;;;;;17.50;57.30;100681.03;5076828;27;66039;-76
2023/07/02 03:24:19;;;;;;;;;28.75;21.25;;;;;17.49;57.17;100681.97;5075964;27;45292;-76
2023/07/02 03:26:45;;;;;;;;;32.50;23.50;;;;;17.50;57.49;100681.03;5069599;28;45429;-77
2023/07/02 03:29:11;;;;;;;;;30.25;25.00;;;;;17.50;57.46;100688.97;5078522;27;70287;-76
2023/07/02 03:31:37;;;;;;;;;27.00;20.00;;;;;17.48;57.32;100694.34;5070958;28;46161;-77
2023/07/02 03:34:09;;;;;;;;;36.00;25.50;;;;;17.45;56.95;100705.09;5078432;27;45607;-76
2023/07/02 03:36:36;;;;;;;;;35.00;22.50;;;;;17.39;58.15;100701.00;5061652;28;45601;-77
2023/07/02 03:39:01;;;;;;;;;26.25;22.25;;;;;17.34;58.08;100691.63;5064666;28;45611;-76
2023/07/02 03:41:27;;;;;;;;;29.00;20.25;;;;;17.31;57.67;100702.38;5072586;28;45516;-77
2023/07/02 03:43:53;;;;;;;;;25.50;21.00;;;;;17.30;58.62;100704.16;5079809;28;45480;-77
2023/07/02 03:46:18;;;;;;;;;27.25;21.50;;;;;17.25;58.39;100715.00;5070212;27;53910;-77
2023/07/02 03:48:43;;;;;;;;;26.25;21.50;;;;;17.18;58.55;100708.34;5074019;28;67899;-77
2023/07/02 03:51:09;;;;;;;;;37.50;25.00;;;;;17.20;58.54;100719.69;5071608;27;45398;-76
2023/07/02 03:53:34;;;;;;;;;41.00;26.25;;;;;17.19;58.32;100706.53;5077421;28;45447;-76
2023/07/02 03:55:59;;;;;;;;;35.50;22.50;;;;;17.18;58.42;100708.34;5072210;27;58021;-77
2023/07/02 03:58:25;;;;;;;;;34.00;24.75;;;;;17.22;58.55;100716.97;5073826;28;45489;-77
2023/07/02 04:00:51;;;;;;;;;29.25;24.75;;;;;17.21;58.22;100716.13;5077146;27;45429;-76
2023/07/02 04:03:16;;;;;;;;;31.75;23.50;;;;;17.20;59.48;100732.06;5053966;28;49398;-77
2023/07/02 04:05:42;;;;;;;;;34.00;22.75;;;;;17.21;58.54;100724.03;5073043;28;52228;-77
2023/07/02 04:08:08;;;;;;;;;23.25;20.50;;;;;17.17;58.35;100719.00;5075411;27;45481;-77
2023/07/02 04:10:33;;;;;;;;;26.50;22.25;;;;;17.17;58.95;100724.28;5075850;27;66454;-77
2023/07/02 04:12:58;;;;;;;;;33.25;21.50;;;;;17.16;58.67;100712.88;5058320;28;58070;-76
2023/07/02 04:15:25;;;;;;;;;35.00;20.75;;;;;17.18;58.75;100718.91;5077089;27;64728;-77
2023/07/02 04:17:51;;;;;;;;;34.50;22.00;;;;;17.21;58.64;100721.41;5054360;28;45581;-77
2023/07/02 04:20:16;;;;;;;;;31.75;20.75;;;;;17.24;58.69;100726.50;5078793;28;52425;-77
2023/07/02 04:22:42;;;;;;;;;28.75;20.25;;;;;17.27;58.19;100730.78;5075327;27;45370;-77
2023/07/02 04:25:07;;;;;;;;;33.00;21.50;;;;;17.29;58.27;100731.56;5078222;27;46889;-75
2023/07/02 04:27:33;;;;;;;;;35.75;22.25;;;;;17.31;58.53;100729.66;5074322;28;45553;-77
2023/07/02 04:29:58;;;;;;;;;31.50;22.25;;;;;17.32;58.46;100722.59;5076168;28;75326;-76
2023/07/02 04:32:25;;;;;;;;;31.75;22.00;;;;;17.36;58.10;100738.22;5072760;28;65255;-75
2023/07/02 04:34:50;;;;;;;;;27.00;21.50;;;;;17.38;58.51;100738.97;5077694;27;45512;-76
2023/07/02 04:37:15;;;;;;;;;25.75;19.75;;;;;17.44;58.15;100743.94;5057559;28;45478;-76
2023/07/02 04:39:41;;;;;;;;;29.50;18.25;;;;;17.46;58.89;100746.50;5074532;28;70744;-77
2023/07/02 04:42:06;;;;;;;;;29.00;18.25;;;;;17.52;58.24;100743.50;5078247;27;72895;-77
2023/07/02 04:44:31;;;;;;;;;34.50;20.75;;;;;17.57;58.08;100751.19;5077790;27;45491;-78
2023/07/02 04:47:01;;;;;;;;;31.75;23.25;;;;;17.59;57.75;100755.44;5072382;27;55398;-78
2023/07/02 04:49:26;;;;;;;;;32.25;22.50;;;;;17.61;58.07;100750.91;5079018;27;45400;-77
2023/07/02 04:51:53;;;;;;;;;22.75;18.50;;;;;17.66;58.16;100750.66;5065478;27;45784;-78
2023/07/02 04:54:22;;;;;;;;;34.00;21.00;;;;;17.71;57.89;100753.91;5078114;28;45394;-78
2023/07/02 04:56:48;;;;;;;;;22.00;18.50;;;;;17.72;58.66;100752.09;5067425;28;45245;-78
2023/07/02 04:59:14;;;;;;;;;34.25;21.25;;;;;17.71;57.88;100755.72;5055309;27;47255;-78
2023/07/02 05:01:39;;;;;;;;;26.75;19.00;;;;;17.69;57.58;100752.28;5071410;28;45898;-78
2023/07/02 05:04:05;;;;;;;;;25.75;21.00;;;;;17.65;58.21;100744.53;5078732;27;45482;-78
2023/07/02 05:06:30;;;;;;;;;25.25;21.50;;;;;17.58;58.06;100748.47;5069894;27;67248;-78
2023/07/02 05:08:56;;;;;;;;;25.25;19.00;;;;;17.63;58.16;100746.38;5075936;27;65937;-78
2023/07/02 05:11:21;;;;;;;;;26.50;18.75;;;;;17.61;58.71;100753.56;5070478;28;61213;-78
2023/07/02 05:13:46;;;;;;;;;26.50;18.50;;;;;17.61;58.12;100748.25;5078571;27;53606;-78
2023/07/02 05:16:13;;;;;;;;;27.50;19.00;;;;;17.64;58.31;100752.56;5069191;27;67749;-78
2023/07/02 05:18:38;;;;;;;;;19.75;17.25;;;;;17.67;58.00;100747.09;5075351;28;46269;-78
2023/07/02 05:21:03;;;;;;;;;30.00;23.75;;;;;17.71;58.41;100751.25;5071558;28;49721;-76
2023/07/02 05:23:29;;;;;;;;;23.75;18.25;;;;;17.75;57.96;100744.84;5075225;28;66812;-76
2023/07/02 05:25:54;;;;;;;;;26.00;20.75;;;;;17.83;58.25;100747.91;5078559;27;45301;-77
2023/07/02 05:28:19;;;;;;;;;34.00;22.50;;;;;17.91;57.69;100752.78;5056280;28;72842;-77
2023/07/02 05:30:45;;;;;;;;;30.25;19.75;;;;;17.98;57.80;100750.66;5067775;27;46178;-78
2023/07/02 05:33:10;;;;;;;;;23.50;20.75;;;;;18.08;57.76;100749.19;5075797;27;60554;-78
2023/07/02 05:35:35;;;;;;;;;32.25;22.25;;;;;18.19;57.31;100757.34;5078263;27;45241;-78
2023/07/02 05:38:01;;;;;;;;;29.75;21.00;;;;;18.27;57.01;100759.53;5074079;27;61948;-78
2023/07/02 05:40:26;;;;;;;;;29.00;20.75;;;;;18.32;57.16;100764.56;5082982;27;45680;-78
2023/07/02 05:42:52;;;;;;;;;27.75;20.25;;;;;18.35;57.18;100764.41;5078285;28;66399;-79
2023/07/02 05:45:17;;;;;;;;;26.00;17.50;;;;;18.39;56.85;100768.56;5080178;27;70818;-78
2023/07/02 05:47:42;;;;;;;;;30.00;18.25;;;;;18.39;56.72;100769.41;5077182;27;46203;-77
2023/07/02 05:50:08;;;;;;;;;26.50;19.50;;;;;18.42;56.46;100763.09;5077195;27;56218;-77
2023/07/02 05:52:34;;;;;;;;;29.25;24.25;;;;;18.48;56.56;100768.00;5079045;27;45661;-77
2023/07/02 05:54:59;;;;;;;;;23.00;14.75;;;;;18.54;56.26;100774.78;5074294;27;65206;-77
2023/07/02 05:57:24;;;;;;;;;23.50;15.75;;;;;18.60;56.46;100783.19;5063161;28;68353;-78
2023/07/02 05:59:50;;;;;;;;;27.75;19.75;;;;;18.66;56.20;100771.38;5063475;28;45627;-77
2023/07/02 06:02:15;;;;;;;;;28.75;21.25;;;;;18.72;56.00;100772.81;5075429;27;65734;-77
2023/07/02 06:04:40;;;;;;;;;25.75;17.50;;;;;18.74;55.98;100771.75;5076293;27;45374;-77
2023/07/02 06:07:06;;;;;;;;;30.25;16.00;;;;;18.78;56.06;100775.91;5059278;28;64103;-77
2023/07/02 06:09:32;;;;;;;;;27.75;20.00;;;;;18.86;55.90;100786.09;5057093;28;45846;-78
2023/07/02 06:11:58;;;;;;;;;31.75;21.00;;;;;18.90;55.87;100784.97;5067909;28;45473;-78
2023/07/02 06:14:25;;;;;;;;;27.50;23.00;;;;;18.93;55.52;100779.47;5078353;28;45433;-78
2023/07/02 06:16:52;;;;;;;;;23.50;18.75;;;;;18.99;55.44;100786.19;5077415;28;47701;-77
2023/07/02 06:19:17;;;;;;;;;31.75;20.25;;;;;19.03;55.54;100786.84;5064333;28;45340;-77
2023/07/02 06:21:42;;;;;;;;;27.75;23.00;;;;;19.03;55.72;100781.56;5071872;28;45438;-78
2023/07/02 06:24:08;;;;;;;;;30.50;18.50;;;;;19.14;55.16;100790.56;5080034;28;45421;-77
2023/07/02 06:26:33;;;;;;;;;27.75;19.50;;;;;19.21;55.33;100793.69;5078651;27;47188;-77
2023/07/02 06:28:59;;;;;;;;;21.00;18.00;;;;;19.24;55.09;100796.13;5055154;28;45465;-77
2023/07/02 06:31:24;;;;;;;;;26.00;18.00;;;;;19.32;55.04;100803.63;5079680;27;45204;-77
2023/07/02 06:33:49;;;;;;;;;25.00;21.00;;;;;19.39;54.79;100804.94;5077024;27;64190;-78
2023/07/02 06:36:15;;;;;;;;;26.00;20.50;;;;;19.43;54.98;100809.09;5073446;28;46189;-78
2023/07/02 06:38:40;;;;;;;;;21.50;19.25;;;;;19.52;55.04;100808.53;5076160;27;45834;-76
2023/07/02 06:41:06;;;;;;;;;22.25;17.50;;;;;19.60;54.65;100807.19;5080021;27;45305;-76
2023/07/02 06:43:31;;;;;;;;;26.25;17.75;;;;;19.63;54.25;100804.34;5075666;27;62241;-77
2023/07/02 06:45:56;;;;;;;;;28.00;20.25;;;;;19.67;54.17;100808.50;5072590;27;45309;-77
2023/07/02 06:48:22;;;;;;;;;20.75;17.50;;;;;19.70;54.36;100814.47;5058189;28;45245;-77
2023/07/02 06:50:47;;;;;;;;;29.75;21.00;;;;;19.76;53.76;100818.56;5077618;28;45446;-80
2023/07/02 06:53:13;;;;;;;;;33.00;21.25;;;;;19.73;54.34;100814.28;5074335;27;47533;-79
2023/07/02 06:55:39;;;;;;;;;22.50;17.00;;;;;19.77;53.78;100820.25;5074803;27;46881;-81
2023/07/02 06:58:06;;;;;;;;;25.75;19.00;;;;;19.80;54.08;100825.38;5053621;28;67083;-77
2023/07/02 07:00:35;;;;;;;;;24.50;21.00;;;;;19.82;53.87;100833.25;5078429;28;45421;-73
2023/07/02 07:03:02;;;;;;;;;26.50;17.50;;;;;19.73;53.29;100827.56;5070183;28;45411;-73
2023/07/02 07:05:30;;;;;;;;;27.75;20.75;;;;;19.65;53.90;100826.31;5055801;28;46848;-77
2023/07/02 07:07:55;;;;;;;;;30.75;16.75;;;;;19.62;54.19;100826.50;5071510;27;45383;-77
2023/07/02 07:10:20;;;;;;;;;28.00;20.50;;;;;19.60;54.08;100820.44;5057966;28;45600;-75
2023/07/02 07:12:46;;;;;;;;;26.75;19.25;;;;;19.63;53.96;100825.56;5074591;27;63024;-76
2023/07/02 07:15:11;;;;;;;;;35.00;26.00;;;;;19.72;54.10;100835.59;5074184;28;45374;-75
2023/07/02 07:17:36;;;;;;;;;22.50;18.00;;;;;19.73;53.85;100824.03;5067285;28;46801;-74
2023/07/02 07:20:04;;;;;;;;;30.50;19.75;;;;;19.77;54.09;100830.03;5076520;28;68690;-73
2023/07/02 07:22:30;;;;;;;;;23.75;17.75;;;;;19.85;53.89;100820.63;5074084;28;47043;-72
2023/07/02 07:24:55;;;;;;;;;26.50;22.50;;;;;19.98;53.69;100833.97;5063565;28;48146;-73
2023/07/02 07:27:20;;;;;;;;;25.00;19.50;;;;;20.01;53.19;100839.09;5075360;27;64619;-75
2023/07/02 07:29:46;;;;;;;;;25.75;20.75;;;;;20.01;53.39;100828.47;5080122;27;46548;-72
2023/07/02 07:32:11;;;;;;;;;23.75;20.00;;;;;20.05;53.37;100829.09;5076683;28;56670;-73
2023/07/02 07:34:36;;;;;;;;;31.75;18.00;;;;;20.16;53.27;100831.06;5070215;28;61235;-71
2023/07/02 07:37:02;;;;;;;;;25.25;17.75;;;;;20.29;52.90;100835.47;5073051;28;64723;-71
2023/07/02 07:39:27;;;;;;;;;24.75;17.00;;;;;20.36;52.84;100840.38;5088493;27;45510;-75
2023/07/02 07:41:53;;;;;;;;;23.50;17.00;;;;;20.40;52.45;100834.75;5074689;28;44845;-73
2023/07/02 07:44:18;;;;;;;;;30.75;20.25;;;;;20.48;52.74;100827.09;5078388;28;48115;-74
2023/07/02 07:46:43;;;;;;;;;25.00;18.00;;;;;20.60;52.51;100833.41;5077806;28;48053;-72
2023/07/02 07:49:09;;;;;;;;;19.25;15.75;;;;;20.66;52.22;100834.81;5090173;27;45683;-74
2023/07/02 07:51:35;;;;;;;;;29.00;21.50;;;;;20.73;51.69;100836.09;5084991;28;48943;-76
2023/07/02 07:54:02;;;;;;;;;27.75;22.75;;;;;20.82;52.10;100840.81;5085269;28;45425;-76
2023/07/02 07:56:27;;;;;;;;;24.00;19.25;;;;;20.84;51.32;100843.34;5069782;28;46089;-76
2023/07/02 07:58:52;;;;;;;;;28.00;22.25;;;;;20.88;51.60;100844.88;5061294;28;45331;-77
2023/07/02 08:01:18;;;;;;;;;24.75;18.50;;;;;20.92;51.05;100840.19;5076002;28;64963;-78
2023/07/02 08:03:43;;;;;;;;;19.50;16.25;;;;;21.01;51.60;100844.84;5083893;28;72763;-77
2023/07/02 08:06:08;;;;;;;;;28.75;19.25;;;;;21.00;50.75;100833.38;5064461;28;45382;-78
2023/07/02 08:08:36;;;;;;;;;20.75;17.50;;;;;20.99;50.68;100847.63;5083220;28;45363;-78
2023/07/02 08:11:01;;;;;;;;;27.00;18.00;;;;;20.94;50.52;100847.09;5080407;27;45311;-82
2023/07/02 08:13:26;;;;;;;;;33.00;20.25;;;;;20.95;50.44;100850.63;5058804;28;57131;-80
2023/07/02 08:15:52;;;;;;;;;24.25;19.25;;;;;21.00;50.60;100845.81;5076501;28;51646;-80
2023/07/02 08:18:17;;;;;;;;;22.75;21.00;;;;;21.11;50.29;100853.06;5067463;27;45323;-80
2023/07/02 08:20:42;;;;;;;;;22.50;16.50;;;;;21.18;50.59;100849.03;5069760;27;68848;-79
2023/07/02 08:23:08;;;;;;;;;31.50;21.25;;;;;21.34;50.52;100851.47;5073483;27;63693;-80
2023/07/02 08:25:33;;;;;;;;;23.00;19.00;;;;;21.49;50.24;100860.19;5082571;27;45362;-80
2023/07/02 08:27:58;;;;;;;;;29.25;17.75;;;;;21.54;49.65;100850.91;5080965;27;46035;-80
2023/07/02 08:30:24;;;;;;;;;43.50;33.75;;;;;21.58;49.73;100852.41;5082737;28;45381;-79
2023/07/02 08:32:49;;;;;;;;;31.00;22.50;;;;;21.68;49.31;100857.09;5078021;28;46274;-79
2023/07/02 08:35:15;;;;;;;;;21.75;19.50;;;;;21.74;48.79;100856.63;5044659;28;45347;-80
2023/07/02 08:37:40;;;;;;;;;30.00;22.50;;;;;21.81;48.81;100865.88;5072104;28;50677;-80
2023/07/02 08:40:08;;;;;;;;;25.25;18.25;;;;;21.84;48.53;100855.00;5071373;28;45529;-80
2023/07/02 08:42:33;;;;;;;;;25.50;19.00;;;;;21.87;48.44;100861.91;5071821;27;47278;-81
2023/07/02 08:44:59;;;;;;;;;23.00;18.25;;;;;21.93;48.19;100861.47;5075777;28;67581;-80
2023/07/02 08:47:25;;;;;;;;;24.25;17.75;;;;;21.92;48.05;100863.31;5072719;28;45200;-81
2023/07/02 08:49:50;;;;;;;;;25.50;19.50;;;;;21.96;48.26;100864.78;5083230;27;45535;-80
2023/07/02 08:52:15;;;;;;;;;24.00;18.00;;;;;22.06;48.12;100866.75;5084805;27;46345;-81
2023/07/02 08:54:42;;;;;;;;;26.25;19.50;;;;;22.10;47.48;100863.75;5081096;27;53627;-81
2023/07/02 08:57:09;;;;;;;;;22.00;17.00;;;;;22.09;47.55;100864.72;5075520;27;45357;-81
2023/07/02 08:59:36;;;;;;;;;18.50;17.25;;;;;22.06;47.38;100856.97;5077617;27;45350;-81
2023/07/02 09:02:01;;;;;;;;;22.50;18.00;;;;;22.01;47.36;100856.44;5054412;28;47250;-81
2023/07/02 09:04:28;;;;;;;;;23.75;17.75;;;;;22.00;47.98;100854.72;5076193;27;45373;-81
2023/07/02 09:07:07;;;;;;;;;27.25;16.50;;;;;21.90;47.28;100857.25;5074854;28;45490;-80
2023/07/02 09:09:33;;;;;;;;;22.50;17.25;;;;;21.79;46.77;100862.47;5074143;28;45439;-80
2023/07/02 09:11:59;;;;;;;;;61.50;46.75;;;;;21.65;47.07;100866.13;5068476;27;46310;-80
2023/07/02 09:14:29;;;;;;;;;24.50;20.00;;;;;21.56;46.12;100858.78;5078897;28;45353;-80
2023/07/02 09:17:10;;;;;;;;;22.00;16.50;;;;;21.54;46.96;100848.25;5073697;27;45386;-80
2023/07/02 09:19:36;;;;;;;;;24.75;18.75;;;;;21.68;45.79;100843.75;5064819;28;45499;-80
2023/07/02 09:22:02;;;;;;;;;20.50;16.00;;;;;21.95;46.25;100844.41;5052664;28;47314;-80
2023/07/02 09:24:30;;;;;;;;;23.00;18.75;;;;;22.19;44.60;100832.91;5084976;27;45231;-81
2023/07/02 09:27:00;;;;;;;;;23.25;15.75;;;;;22.35;44.93;100844.16;5060958;28;45395;-80
2023/07/02 09:29:36;;;;;;;;;24.75;17.25;;;;;22.47;45.06;100849.53;5086910;28;45355;-79
2023/07/02 09:32:03;;;;;;;;;17.25;15.50;;;;;22.53;44.49;100835.75;5081720;28;45400;-81
2023/07/02 09:34:30;;;;;;;;;19.50;14.00;;;;;22.53;43.83;100841.91;5089937;28;45088;-79
2023/07/02 09:36:57;;;;;;;;;16.50;13.00;;;;;22.50;44.26;100851.97;5083543;28;45504;-80
2023/07/02 09:39:29;;;;;;;;;23.75;16.75;;;;;22.41;44.03;100848.16;5081977;28;45198;-80
2023/07/02 09:42:00;;;;;;;;;21.00;16.50;;;;;22.33;43.73;100842.59;5063784;27;47035;-80
2023/07/02 09:44:29;;;;;;;;;22.50;18.50;;;;;22.31;44.03;100840.03;5081455;28;45571;-80
2023/07/02 09:47:05;;;;;;;;;22.50;15.50;;;;;22.33;43.63;100847.91;5063220;28;45427;-81
2023/07/02 09:49:35;;;;;;;;;18.75;15.25;;;;;22.41;43.19;100850.00;5084275;27;45300;-80
2023/07/02 09:52:03;;;;;;;;;20.50;15.50;;;;;22.49;43.11;100850.28;5076766;28;45670;-80
2023/07/02 09:54:29;;;;;;;;;23.25;16.50;;;;;22.56;42.86;100844.34;5077502;27;45394;-79
2023/07/02 09:56:55;;;;;;;;;17.50;12.75;;;;;22.60;42.89;100838.78;5073841;28;45303;-79
2023/07/02 09:59:21;;;;;;;;;19.00;16.25;;;;;22.56;42.22;100846.19;5103713;27;45276;-79
2023/07/02 10:01:47;;;;;;;;;19.00;13.25;;;;;22.50;42.64;100841.28;5082912;28;65556;-80
2023/07/02 10:04:18;;;;;;;;;19.25;14.75;;;;;22.48;42.42;100848.56;5084493;28;45002;-80
2023/07/02 10:07:01;;;;;;;;;19.75;15.00;;;;;22.47;41.16;100857.53;5058685;28;45306;-79
2023/07/02 10:09:43;;;;;;;;;17.50;15.50;;;;;22.47;42.15;100838.84;5065628;28;45548;-79
2023/07/02 10:12:15;;;;;;;;;26.00;21.00;;;;;22.63;42.61;100839.41;5049732;27;47147;-79
2023/07/02 10:14:44;;;;;;;;;19.25;16.50;;;;;22.94;42.60;100840.56;5072455;27;45157;-80
2023/07/02 10:17:09;;;;;;;;;15.50;13.75;;;;;23.16;42.51;100841.59;5069974;28;45398;-80
2023/07/02 10:19:35;;;;;;;;;17.50;15.00;;;;;23.26;41.90;100839.88;5078429;28;48911;-80
2023/07/02 10:22:04;;;;;;;;;18.25;12.00;;;;;23.24;41.56;100836.50;5072988;28;59056;-80
2023/07/02 10:24:30;;;;;;;;;17.75;13.50;;;;;23.13;41.52;100848.00;5059285;28;45291;-78
2023/07/02 10:26:57;;;;;;;;;18.00;13.25;;;;;23.05;41.49;100849.59;5075354;28;45424;-80
2023/07/02 10:29:24;;;;;;;;;20.25;15.50;;;;;22.97;41.54;100835.97;5077147;27;45520;-80
2023/07/02 10:31:53;;;;;;;;;18.25;13.50;;;;;22.91;41.35;100839.94;5078230;28;47606;-80
2023/07/02 10:34:32;;;;;;;;;33.75;21.00;;;;;22.82;41.42;100840.66;5080497;27;45801;-80
2023/07/02 10:37:00;;;;;;;;;27.25;18.25;;;;;22.87;41.53;100838.50;5076263;27;45271;-81
2023/07/02 10:39:26;;;;;;;;;17.75;14.75;;;;;22.92;41.85;100837.16;5062211;28;45540;-81
2023/07/02 10:41:51;;;;;;;;;21.25;16.25;;;;;23.01;41.23;100837.41;5052614;28;47189;-81
2023/07/02 10:44:16;;;;;;;;;23.25;19.50;;;;;22.99;41.39;100828.69;5075260;27;45375;-81
2023/07/02 10:46:46;;;;;;;;;18.75;13.00;;;;;22.94;41.19;100837.88;5078420;27;45502;-81
2023/07/02 10:49:12;;;;;;;;;22.75;15.25;;;;;22.89;41.10;100836.53;5060131;28;45837;-80
2023/07/02 10:51:38;;;;;;;;;19.00;15.50;;;;;22.87;41.24;100825.97;5072236;27;47104;-81
2023/07/02 10:54:04;;;;;;;;;21.50;18.25;;;;;22.94;41.44;100829.03;5062880;27;45349;-80
2023/07/02 10:56:30;;;;;;;;;25.50;16.00;;;;;23.06;41.40;100827.28;5076924;28;45458;-81
2023/07/02 10:58:56;;;;;;;;;20.75;14.25;;;;;23.21;40.31;100827.88;5078570;28;45426;-81
2023/07/02 11:01:29;;;;;;;;;19.00;15.25;;;;;23.34;40.71;100820.59;5081300;28;46331;-80
2023/07/02 11:03:56;;;;;;;;;17.25;14.75;;;;;23.42;40.26;100822.66;5076007;27;46009;-81
2023/07/02 11:06:21;;;;;;;;;27.00;15.50;;;;;23.45;40.12;100823.25;5063904;28;45367;-80